Time;durP1;ratioP1;P1;durP2;ratioP2;P2;SDS_P1;SDS_P2;PMS_P1;PMS_P2;Temp;Humidity;BMP_temperature;BMP_pressure;BME280_temperature;BME280_humidity;BME280_pressure;Samples;Min_cycle;Max_cycle;Signal;HPM_P1;HPM_P2
2023/01/22 00:02:16;;;;;;;6.67;5.97;;;14.30;61.50;;;;;;5102540;28;20657;-45
2023/01/22 00:04:50;;;;;;;6.53;5.17;;;14.30;61.60;;;;;;5103122;28;20606;-45
2023/01/22 00:07:21;;;;;;;6.03;5.33;;;14.30;61.60;;;;;;5101174;28;20208;-45
2023/01/22 00:09:51;;;;;;;6.73;5.37;;;14.30;61.50;;;;;;5106318;28;20184;-45
2023/01/22 00:12:19;;;;;;;6.37;5.63;;;14.30;61.50;;;;;;5105008;28;20253;-45
2023/01/22 00:14:53;;;;;;;5.93;5.33;;;14.30;61.60;;;;;;5112101;28;20486;-45
2023/01/22 00:17:25;;;;;;;5.90;5.30;;;14.30;61.60;;;;;;5108206;28;20192;-45
2023/01/22 00:19:55;;;;;;;5.63;5.03;;;14.30;61.60;;;;;;5109854;28;20231;-45
2023/01/22 00:22:25;;;;;;;6.20;5.37;;;14.30;61.50;;;;;;5105325;28;20193;-45
2023/01/22 00:24:56;;;;;;;5.60;5.03;;;14.30;61.60;;;;;;5105241;27;20196;-45
2023/01/22 00:27:26;;;;;;;8.10;5.37;;;14.20;61.50;;;;;;5100668;28;20189;-45
2023/01/22 00:29:55;;;;;;;6.87;5.40;;;14.20;61.50;;;;;;5109585;27;20357;-45
2023/01/22 00:32:23;;;;;;;6.07;5.47;;;14.20;61.70;;;;;;5102257;28;20405;-45
2023/01/22 00:34:53;;;;;;;6.13;4.87;;;14.20;61.50;;;;;;5110072;28;20200;-46
2023/01/22 00:37:26;;;;;;;6.00;5.20;;;14.20;61.50;;;;;;5102011;27;20188;-45
2023/01/22 00:39:54;;;;;;;6.07;5.47;;;14.20;61.50;;;;;;5107171;28;20241;-45
2023/01/22 00:42:22;;;;;;;7.23;6.30;;;14.20;61.50;;;;;;5107782;28;20208;-45
2023/01/22 00:44:54;;;;;;;5.40;4.90;;;14.20;61.40;;;;;;5112694;27;20304;-45
2023/01/22 00:47:25;;;;;;;6.03;5.43;;;14.20;61.40;;;;;;5099368;27;20211;-46
2023/01/22 00:49:55;;;;;;;6.93;5.70;;;14.20;61.50;;;;;;5110307;28;20180;-46
2023/01/22 00:52:22;;;;;;;7.00;5.90;;;14.10;61.50;;;;;;5111373;28;20900;-45
2023/01/22 00:54:57;;;;;;;6.47;5.83;;;14.10;61.40;;;;;;5110496;27;20210;-45
2023/01/22 00:57:28;;;;;;;6.00;5.33;;;14.10;61.40;;;;;;5117427;27;20219;-45
2023/01/22 00:59:59;;;;;;;6.30;5.70;;;14.10;61.40;;;;;;5110283;28;20192;-45
2023/01/22 01:02:26;;;;;;;5.97;5.10;;;14.20;61.50;;;;;;5110219;28;20197;-45
2023/01/22 01:04:56;;;;;;;6.20;5.43;;;14.10;61.40;;;;;;5110597;28;20200;-46
2023/01/22 01:07:25;;;;;;;5.93;5.30;;;14.10;61.50;;;;;;5109307;28;20196;-46
2023/01/22 01:09:54;;;;;;;6.10;5.50;;;14.10;61.40;;;;;;5118025;27;20215;-45
2023/01/22 01:12:23;;;;;;;6.70;6.00;;;14.10;61.30;;;;;;5109946;27;20547;-45
2023/01/22 01:14:56;;;;;;;6.93;5.83;;;14.10;61.40;;;;;;5093200;28;20848;-46
2023/01/22 01:17:25;;;;;;;5.90;5.30;;;14.10;61.30;;;;;;5106909;28;20217;-45
2023/01/22 01:19:54;;;;;;;6.03;5.40;;;14.10;61.30;;;;;;5091879;28;20232;-45
2023/01/22 01:22:21;;;;;;;6.17;5.57;;;14.00;61.20;;;;;;5097762;28;20208;-46
2023/01/22 01:24:53;;;;;;;6.60;5.90;;;14.10;61.30;;;;;;5103197;27;20211;-46
2023/01/22 01:27:30;;;;;;;6.43;5.73;;;14.00;61.10;;;;;;5099854;28;20220;-45
2023/01/22 01:30:14;;;;;;;6.00;5.40;;;14.00;61.10;;;;;;5104972;28;20238;-45
2023/01/22 01:32:43;;;;;;;6.23;5.57;;;14.10;61.20;;;;;;5096957;28;20514;-45
2023/01/22 01:35:12;;;;;;;5.67;5.10;;;14.00;61.20;;;;;;5109101;28;20481;-45
2023/01/22 01:37:43;;;;;;;6.77;6.07;;;14.10;61.30;;;;;;5105312;28;20201;-45
2023/01/22 01:40:16;;;;;;;5.73;5.13;;;14.00;61.30;;;;;;5110592;27;20218;-45
2023/01/22 01:42:47;;;;;;;6.80;6.10;;;14.00;61.30;;;;;;5106486;28;20209;-45
2023/01/22 01:45:33;;;;;;;6.30;5.50;;;14.00;61.20;;;;;;5086575;28;20212;-45
2023/01/22 01:48:37;;;;;;;5.70;5.10;;;14.00;61.20;;;;;;5102818;28;20277;-45
2023/01/22 01:51:30;;;;;;;5.17;4.67;;;14.00;61.20;;;;;;5104442;27;20196;-45
2023/01/22 01:54:04;;;;;;;5.60;4.97;;;14.00;61.20;;;;;;5086725;28;20253;-45
2023/01/22 01:56:39;;;;;;;6.03;5.43;;;14.00;61.20;;;;;;5112326;28;20223;-45
2023/01/22 01:59:22;;;;;;;6.23;5.63;;;14.00;61.40;;;;;;5096371;28;20196;-46
2023/01/22 02:02:14;;;;;;;6.03;5.13;;;14.00;61.30;;;;;;5092888;28;20203;-45
2023/01/22 02:04:43;;;;;;;6.20;5.57;;;14.00;61.20;;;;;;5111522;28;20192;-46
2023/01/22 02:07:11;;;;;;;5.93;5.33;;;14.00;61.40;;;;;;5110281;28;20269;-45
2023/01/22 02:09:42;;;;;;;5.57;4.53;;;14.00;61.30;;;;;;5110055;28;20621;-45
2023/01/22 02:12:12;;;;;;;5.33;4.83;;;13.90;61.30;;;;;;5089345;28;20616;-45
2023/01/22 02:14:48;;;;;;;6.40;5.33;;;14.00;61.20;;;;;;5111870;27;20200;-45
2023/01/22 02:17:30;;;;;;;5.70;5.00;;;13.90;61.30;;;;;;5096191;28;20208;-45
2023/01/22 02:20:00;;;;;;;5.80;5.20;;;13.90;61.30;;;;;;5107498;27;20228;-45
2023/01/22 02:22:32;;;;;;;5.60;4.43;;;13.90;61.30;;;;;;5102318;28;20188;-45
2023/01/22 02:25:02;;;;;;;5.33;4.47;;;13.90;61.40;;;;;;5086110;28;20278;-45
2023/01/22 02:27:33;;;;;;;5.80;5.30;;;13.90;61.30;;;;;;5106443;28;20185;-47
2023/01/22 02:30:00;;;;;;;5.47;4.97;;;13.90;61.30;;;;;;5073234;28;20193;-45
2023/01/22 02:32:28;;;;;;;5.30;4.80;;;13.90;61.30;;;;;;5091479;28;20233;-46
2023/01/22 02:35:01;;;;;;;4.87;4.43;;;13.90;61.30;;;;;;5109348;28;20201;-45
2023/01/22 02:37:28;;;;;;;5.03;4.57;;;13.90;61.40;;;;;;5110787;28;20546;-45
2023/01/22 02:40:06;;;;;;;5.50;4.50;;;13.90;61.40;;;;;;5104828;27;20192;-45
2023/01/22 02:42:33;;;;;;;5.80;4.83;;;13.90;61.40;;;;;;5105640;28;20660;-45
2023/01/22 02:45:01;;;;;;;5.70;5.20;;;13.90;61.40;;;;;;5093241;28;20195;-46
2023/01/22 02:47:29;;;;;;;5.67;5.10;;;13.90;61.50;;;;;;5092734;28;20662;-45
2023/01/22 02:50:00;;;;;;;5.70;5.10;;;13.90;61.40;;;;;;5109362;27;20223;-45
2023/01/22 02:52:28;;;;;;;6.03;5.03;;;13.90;61.30;;;;;;5096077;28;20189;-45
2023/01/22 02:55:00;;;;;;;4.93;4.50;;;13.90;61.30;;;;;;5098904;28;20226;-46
2023/01/22 02:57:30;;;;;;;6.17;4.80;;;13.90;61.40;;;;;;5100065;28;20243;-45
2023/01/22 03:00:02;;;;;;;5.43;4.93;;;13.90;61.40;;;;;;5076845;28;20249;-45
2023/01/22 03:02:31;;;;;;;5.20;4.70;;;13.80;61.30;;;;;;5107086;28;20192;-45
2023/01/22 03:05:03;;;;;;;4.77;4.27;;;13.90;61.40;;;;;;5108992;28;20189;-45
2023/01/22 03:07:43;;;;;;;6.27;4.70;;;13.80;61.40;;;;;;5098221;28;20208;-45
2023/01/22 03:10:16;;;;;;;5.53;5.00;;;13.80;61.30;;;;;;5106116;28;20563;-45
2023/01/22 03:21:31;;;;;;;5.23;4.73;;;13.90;61.50;;;;;;5102800;28;20665;-46
2023/01/22 03:24:00;;;;;;;5.50;4.70;;;13.80;61.50;;;;;;5107709;28;20249;-45
2023/01/22 03:26:34;;;;;;;4.40;4.00;;;13.80;61.50;;;;;;5102669;28;20192;-45
2023/01/22 03:29:05;;;;;;;4.43;3.80;;;13.80;61.50;;;;;;5087039;28;20199;-45
2023/01/22 03:31:34;;;;;;;5.10;4.60;;;13.80;61.50;;;;;;5103193;28;20227;-45
2023/01/22 03:34:06;;;;;;;4.77;4.23;;;13.80;61.50;;;;;;5108159;27;20188;-46
2023/01/22 03:36:37;;;;;;;4.77;4.20;;;13.80;61.50;;;;;;5108900;28;20220;-46
2023/01/22 03:39:06;;;;;;;5.77;4.27;;;13.80;61.50;;;;;;5107674;28;20192;-45
2023/01/22 03:41:36;;;;;;;5.30;4.80;;;13.80;61.60;;;;;;5088167;28;20185;-46
2023/01/22 03:44:13;;;;;;;4.97;4.40;;;13.80;61.40;;;;;;5104126;27;20246;-45
2023/01/22 03:46:49;;;;;;;5.00;4.40;;;13.70;61.40;;;;;;5103796;28;20192;-45
2023/01/22 03:49:19;;;;;;;5.57;4.37;;;13.70;61.50;;;;;;5103086;28;20187;-45
2023/01/22 03:51:47;;;;;;;4.80;4.40;;;13.70;61.40;;;;;;5108007;28;20283;-45
2023/01/22 03:54:19;;;;;;;5.10;4.07;;;13.80;61.50;;;;;;5101066;28;20272;-45
2023/01/22 03:56:48;;;;;;;5.13;4.63;;;13.80;61.50;;;;;;5108855;28;20205;-45
2023/01/22 03:59:19;;;;;;;7.33;5.07;;;13.70;61.50;;;;;;5112905;28;20192;-45
2023/01/22 04:01:51;;;;;;;4.63;4.23;;;13.80;61.60;;;;;;5092237;28;20205;-45
2023/01/22 04:04:21;;;;;;;5.00;4.50;;;13.80;61.50;;;;;;5108257;27;20493;-45
2023/01/22 04:06:52;;;;;;;4.13;3.73;;;13.70;61.50;;;;;;5105701;28;20268;-45
2023/01/22 04:09:36;;;;;;;4.63;4.23;;;13.70;61.50;;;;;;5107820;28;20239;-45
2023/01/22 04:12:08;;;;;;;5.00;4.37;;;13.80;61.60;;;;;;5110038;28;20203;-45
2023/01/22 04:14:39;;;;;;;4.53;4.13;;;13.70;61.50;;;;;;5114257;27;20601;-45
2023/01/22 04:17:09;;;;;;;4.03;3.63;;;13.70;61.50;;;;;;5100604;28;20219;-45
2023/01/22 04:19:37;;;;;;;4.53;4.00;;;13.70;61.50;;;;;;5094622;28;20205;-45
2023/01/22 04:22:07;;;;;;;4.17;3.77;;;13.70;61.40;;;;;;5107695;28;20200;-45
2023/01/22 04:24:37;;;;;;;5.47;3.97;;;13.70;61.50;;;;;;5112887;28;20197;-46
2023/01/22 04:27:07;;;;;;;4.77;4.37;;;13.70;62.00;;;;;;5117558;27;20656;-45
2023/01/22 04:29:35;;;;;;;6.27;3.93;;;13.70;61.50;;;;;;5115047;27;20238;-45
2023/01/22 04:32:07;;;;;;;4.40;4.00;;;13.70;61.40;;;;;;5102980;28;20584;-45
2023/01/22 04:34:36;;;;;;;4.27;3.70;;;13.70;61.50;;;;;;5113151;28;20223;-45
2023/01/22 04:37:06;;;;;;;4.60;4.03;;;13.70;61.50;;;;;;5113146;28;20599;-45
2023/01/22 04:39:35;;;;;;;4.23;3.60;;;13.70;61.50;;;;;;5112072;28;20680;-45
2023/01/22 04:42:04;;;;;;;4.37;3.70;;;13.70;61.40;;;;;;5110613;27;20236;-45
2023/01/22 04:44:35;;;;;;;4.03;3.63;;;13.70;61.40;;;;;;5112721;28;20668;-45
2023/01/22 04:47:10;;;;;;;5.10;4.60;;;13.70;61.40;;;;;;5111542;28;20204;-45
2023/01/22 04:49:42;;;;;;;4.43;4.00;;;13.70;61.40;;;;;;5094240;28;20192;-45
2023/01/22 04:52:14;;;;;;;3.93;3.63;;;13.70;61.50;;;;;;5114896;27;20206;-45
2023/01/22 04:54:46;;;;;;;5.73;4.57;;;13.70;61.50;;;;;;5107205;28;20231;-45
2023/01/22 04:57:16;;;;;;;4.17;3.80;;;13.70;61.50;;;;;;5106938;28;20223;-45
2023/01/22 04:59:47;;;;;;;4.57;3.70;;;13.70;61.50;;;;;;5113529;27;20192;-45
2023/01/22 05:02:22;;;;;;;4.47;4.07;;;13.70;61.50;;;;;;5108782;27;20598;-45
2023/01/22 05:04:55;;;;;;;4.67;4.13;;;13.70;61.60;;;;;;5109317;28;20206;-45
2023/01/22 05:07:25;;;;;;;4.63;3.80;;;13.70;61.60;;;;;;5104173;28;20285;-45
2023/01/22 05:09:56;;;;;;;4.17;3.77;;;13.70;61.60;;;;;;5091141;28;20204;-45
2023/01/22 05:12:28;;;;;;;3.47;3.17;;;13.70;61.60;;;;;;5105687;28;20261;-45
2023/01/22 05:14:58;;;;;;;4.20;3.80;;;13.70;61.70;;;;;;5091713;28;20234;-45
2023/01/22 05:17:33;;;;;;;4.27;3.87;;;13.70;61.60;;;;;;5106601;27;20633;-45
2023/01/22 05:20:04;;;;;;;4.17;3.77;;;13.70;61.70;;;;;;5104635;28;20587;-45
2023/01/22 05:22:35;;;;;;;4.07;3.73;;;13.70;61.60;;;;;;5102476;28;20196;-45
2023/01/22 05:25:09;;;;;;;4.30;3.80;;;13.70;61.60;;;;;;5110519;28;20188;-45
2023/01/22 05:27:39;;;;;;;4.90;4.27;;;13.70;61.70;;;;;;5104679;28;20513;-45
2023/01/22 05:30:08;;;;;;;4.20;3.73;;;13.60;61.60;;;;;;5088517;28;20204;-45
2023/01/22 05:32:37;;;;;;;4.20;3.80;;;13.60;61.60;;;;;;5109982;27;20192;-45
2023/01/22 05:35:09;;;;;;;4.00;3.60;;;13.60;61.60;;;;;;5111640;28;20701;-45
2023/01/22 05:37:41;;;;;;;5.23;4.37;;;13.60;61.50;;;;;;5103241;28;20262;-45
2023/01/22 05:40:10;;;;;;;4.10;3.33;;;13.60;61.50;;;;;;5101279;28;20261;-45
2023/01/22 05:42:41;;;;;;;4.47;3.90;;;13.60;61.50;;;;;;5109709;28;20208;-45
2023/01/22 05:45:11;;;;;;;4.40;3.50;;;13.60;61.60;;;;;;5112048;28;20197;-45
2023/01/22 05:47:42;;;;;;;3.67;3.30;;;13.60;61.60;;;;;;5087560;28;20205;-45
2023/01/22 05:50:14;;;;;;;3.93;3.63;;;13.60;61.60;;;;;;5102456;28;20609;-45
2023/01/22 05:52:47;;;;;;;3.67;3.37;;;13.60;61.50;;;;;;5104941;28;20211;-45
2023/01/22 05:55:19;;;;;;;4.77;3.53;;;13.60;61.40;;;;;;5104631;28;20209;-45
2023/01/22 05:57:51;;;;;;;3.77;3.43;;;13.60;61.50;;;;;;5098914;27;20266;-45
2023/01/22 06:00:23;;;;;;;3.83;3.53;;;13.60;61.40;;;;;;5102864;28;20242;-45
2023/01/22 06:02:58;;;;;;;3.97;3.57;;;13.60;61.50;;;;;;5100596;27;20181;-45
2023/01/22 06:05:33;;;;;;;4.23;3.83;;;13.60;61.50;;;;;;5084105;28;20610;-45
2023/01/22 06:08:03;;;;;;;3.33;3.03;;;13.60;61.40;;;;;;5106371;28;20750;-45
2023/01/22 06:10:35;;;;;;;5.03;3.63;;;13.60;61.40;;;;;;5105267;28;20203;-45
2023/01/22 06:13:07;;;;;;;3.90;3.60;;;13.60;61.40;;;;;;5101943;27;20203;-45
2023/01/22 06:15:36;;;;;;;3.57;3.27;;;13.60;61.40;;;;;;5107898;28;20207;-45
2023/01/22 06:18:04;;;;;;;4.03;3.50;;;13.60;61.30;;;;;;5091681;27;20216;-45
2023/01/22 06:20:42;;;;;;;4.03;3.40;;;13.60;61.40;;;;;;5096737;28;20236;-45
2023/01/22 06:23:11;;;;;;;4.00;3.37;;;13.60;61.30;;;;;;5103239;27;20633;-45
2023/01/22 06:25:41;;;;;;;4.20;3.80;;;13.60;61.20;;;;;;5111433;28;20189;-45
2023/01/22 06:28:13;;;;;;;4.37;3.97;;;13.60;61.30;;;;;;5105646;28;20206;-45
2023/01/22 06:30:44;;;;;;;4.13;3.73;;;13.60;61.20;;;;;;5107256;27;20216;-45
2023/01/22 06:33:16;;;;;;;4.70;4.00;;;13.60;61.20;;;;;;5108794;28;20197;-45
2023/01/22 06:35:51;;;;;;;4.30;3.90;;;13.50;61.10;;;;;;5110539;28;20202;-45
2023/01/22 06:38:23;;;;;;;5.10;3.57;;;13.60;61.10;;;;;;5094386;28;20217;-45
2023/01/22 06:40:55;;;;;;;5.57;4.20;;;13.60;61.10;;;;;;5106007;28;20192;-45
2023/01/22 06:43:22;;;;;;;4.17;3.77;;;13.60;61.10;;;;;;5090487;28;20200;-45
2023/01/22 06:45:54;;;;;;;4.53;3.80;;;13.50;60.90;;;;;;5091667;28;20203;-45
2023/01/22 06:48:22;;;;;;;4.73;3.83;;;13.60;60.90;;;;;;5109931;28;20189;-45
2023/01/22 06:50:56;;;;;;;4.57;3.87;;;13.50;60.90;;;;;;5092973;28;20202;-45
2023/01/22 06:53:23;;;;;;;4.67;3.53;;;13.50;60.80;;;;;;5099495;27;20488;-46
2023/01/22 06:55:54;;;;;;;4.50;3.90;;;13.50;60.80;;;;;;5112484;28;20208;-46
2023/01/22 06:58:21;;;;;;;4.40;4.00;;;13.50;60.70;;;;;;5113744;28;20665;-45
2023/01/22 07:00:51;;;;;;;4.97;3.97;;;13.50;60.60;;;;;;5106290;28;20200;-47
2023/01/22 07:03:22;;;;;;;4.30;3.70;;;13.50;60.70;;;;;;5115803;27;20207;-45
2023/01/22 07:05:58;;;;;;;4.20;3.57;;;13.50;60.70;;;;;;5093227;28;20185;-45
2023/01/22 07:08:29;;;;;;;4.83;3.50;;;13.50;60.60;;;;;;5108798;27;20199;-45
2023/01/22 07:10:58;;;;;;;8.87;3.50;;;13.50;60.70;;;;;;5110514;28;20192;-45
2023/01/22 07:13:27;;;;;;;4.43;3.23;;;13.50;60.70;;;;;;5106696;28;20197;-45
2023/01/22 07:16:03;;;;;;;6.93;4.10;;;13.50;60.70;;;;;;5105616;28;20233;-45
2023/01/22 07:18:40;;;;;;;4.70;2.83;;;13.50;61.30;;;;;;5114687;27;20232;-45
2023/01/22 07:21:11;;;;;;;5.30;3.60;;;13.50;60.70;;;;;;5116427;27;20240;-45
2023/01/22 07:23:41;;;;;;;6.17;3.77;;;13.50;60.70;;;;;;5102562;28;20230;-46
2023/01/22 07:26:12;;;;;;;7.27;4.10;;;13.50;60.80;;;;;;5109149;27;20196;-45
2023/01/22 07:28:43;;;;;;;7.20;3.90;;;13.50;60.80;;;;;;5107319;27;20193;-45
2023/01/22 07:31:14;;;;;;;5.20;3.00;;;13.50;61.00;;;;;;5093941;27;20245;-45
2023/01/22 07:33:44;;;;;;;5.73;3.47;;;13.50;61.00;;;;;;5092525;28;20200;-45
2023/01/22 07:36:16;;;;;;;5.47;3.37;;;13.50;61.00;;;;;;5103958;28;20627;-45
2023/01/22 07:38:48;;;;;;;5.10;3.20;;;13.50;61.10;;;;;;5106785;28;20212;-45
2023/01/22 07:41:18;;;;;;;4.33;3.23;;;13.50;61.00;;;;;;5098595;28;20200;-45
2023/01/22 07:43:56;;;;;;;6.17;3.13;;;13.50;61.00;;;;;;5099755;28;20641;-45
2023/01/22 07:46:29;;;;;;;6.13;3.37;;;13.50;61.00;;;;;;5111089;28;20244;-45
2023/01/22 07:49:00;;;;;;;4.10;3.30;;;13.50;61.00;;;;;;5109798;28;20185;-45
2023/01/22 07:51:29;;;;;;;3.70;3.23;;;13.50;61.00;;;;;;5112235;28;20554;-45
2023/01/22 07:53:56;;;;;;;4.80;3.27;;;13.50;61.10;;;;;;5091326;28;20214;-45
2023/01/22 07:56:27;;;;;;;3.80;2.90;;;13.50;61.30;;;;;;5114880;28;20264;-45
2023/01/22 07:58:59;;;;;;;3.93;2.90;;;13.50;60.90;;;;;;5111645;28;20259;-45
2023/01/22 08:01:31;;;;;;;3.97;2.93;;;13.50;60.80;;;;;;5105519;28;20192;-45
2023/01/22 08:04:00;;;;;;;4.23;3.27;;;13.50;60.60;;;;;;5080981;28;20246;-45
2023/01/22 08:06:28;;;;;;;4.63;3.30;;;13.50;60.50;;;;;;5106682;28;20269;-45
2023/01/22 08:08:58;;;;;;;6.60;3.47;;;13.50;60.30;;;;;;5092432;28;20204;-46
2023/01/22 08:11:27;;;;;;;4.77;3.30;;;13.60;60.30;;;;;;5107613;28;20275;-45
2023/01/22 08:13:56;;;;;;;7.50;3.40;;;13.50;60.20;;;;;;5093450;28;20230;-46
2023/01/22 08:16:28;;;;;;;3.63;3.17;;;13.50;59.90;;;;;;5110530;28;20759;-45
2023/01/22 08:18:56;;;;;;;5.40;3.37;;;13.60;60.00;;;;;;5095329;28;20243;-46
2023/01/22 08:21:27;;;;;;;7.50;3.53;;;13.60;60.00;;;;;;5104862;28;20586;-45
2023/01/22 08:23:59;;;;;;;5.67;3.67;;;13.60;59.90;;;;;;5108127;28;20185;-45
2023/01/22 08:26:29;;;;;;;6.17;3.90;;;13.60;60.50;;;;;;5114059;28;20795;-45
2023/01/22 08:29:00;;;;;;;6.10;3.53;;;13.60;59.80;;;;;;5089291;28;20266;-45
2023/01/22 08:31:35;;;;;;;5.87;3.10;;;13.60;59.80;;;;;;5100016;28;20223;-45
2023/01/22 08:34:03;;;;;;;9.60;3.43;;;13.60;59.70;;;;;;5092091;28;20703;-45
2023/01/22 08:36:34;;;;;;;7.53;3.07;;;13.60;59.90;;;;;;5103885;28;20204;-45
2023/01/22 08:39:02;;;;;;;5.60;3.63;;;13.60;60.00;;;;;;5101494;28;20220;-45
2023/01/22 08:41:35;;;;;;;6.70;3.43;;;13.60;59.90;;;;;;5101553;28;20200;-45
2023/01/22 08:44:26;;;;;;;6.90;3.40;;;13.60;59.60;;;;;;5098725;28;20601;-45
2023/01/22 08:46:55;;;;;;;6.60;3.50;;;13.60;59.50;;;;;;5109960;27;20199;-45
2023/01/22 08:49:25;;;;;;;5.27;3.33;;;13.60;59.60;;;;;;5089735;28;20260;-45
2023/01/22 08:51:54;;;;;;;6.20;3.87;;;13.60;59.50;;;;;;5106283;28;20238;-45
2023/01/22 08:54:34;;;;;;;5.50;3.43;;;13.60;59.40;;;;;;5107602;27;20215;-45
2023/01/22 08:57:03;;;;;;;5.40;3.60;;;13.60;59.40;;;;;;5109978;27;20617;-45
2023/01/22 08:59:34;;;;;;;3.77;3.37;;;13.60;59.30;;;;;;5089450;28;20197;-45
2023/01/22 09:02:04;;;;;;;5.93;3.43;;;13.60;59.30;;;;;;5108085;27;20226;-45
2023/01/22 09:04:34;;;;;;;4.67;3.70;;;13.60;59.30;;;;;;5089702;28;20281;-45
2023/01/22 09:07:02;;;;;;;3.60;3.30;;;13.60;59.30;;;;;;5105003;28;20540;-45
2023/01/22 09:09:33;;;;;;;4.03;3.57;;;13.60;59.40;;;;;;5080148;28;20200;-45
2023/01/22 09:12:04;;;;;;;4.13;3.70;;;13.60;59.30;;;;;;5102851;28;20193;-45
2023/01/22 09:14:32;;;;;;;3.43;3.13;;;13.70;59.20;;;;;;5111638;27;20207;-45
2023/01/22 09:17:03;;;;;;;4.23;3.10;;;13.60;59.30;;;;;;5112329;27;20200;-46
2023/01/22 09:19:30;;;;;;;3.90;2.97;;;13.60;59.30;;;;;;5104576;28;20235;-45
2023/01/22 09:22:05;;;;;;;7.20;3.73;;;13.60;59.30;;;;;;5102334;28;20236;-45
2023/01/22 09:24:33;;;;;;;3.83;2.80;;;13.60;59.30;;;;;;5106038;27;20191;-45
2023/01/22 09:27:01;;;;;;;4.90;3.07;;;13.60;59.30;;;;;;5109091;28;20268;-45
2023/01/22 09:29:33;;;;;;;3.47;2.97;;;13.70;59.30;;;;;;5105639;28;20223;-45
2023/01/22 09:32:03;;;;;;;3.10;2.80;;;13.60;59.30;;;;;;5103889;28;20212;-46
2023/01/22 09:34:33;;;;;;;3.00;2.77;;;13.70;59.90;;;;;;5110062;27;20207;-45
2023/01/22 09:37:06;;;;;;;3.67;3.30;;;13.70;59.40;;;;;;5111918;27;20526;-45
2023/01/22 09:39:38;;;;;;;2.90;2.70;;;13.70;59.40;;;;;;5109825;28;20218;-45
2023/01/22 09:42:34;;;;;;;3.03;2.67;;;13.70;59.40;;;;;;5103587;28;20273;-45
2023/01/22 09:45:13;;;;;;;3.17;2.67;;;13.60;59.40;;;;;;5095375;28;20196;-45
2023/01/22 09:47:46;;;;;;;6.20;3.10;;;13.70;59.40;;;;;;5058459;28;20724;-45
2023/01/22 09:50:27;;;;;;;3.40;2.60;;;13.70;59.40;;;;;;5087549;28;20664;-45
2023/01/22 09:53:02;;;;;;;3.43;3.13;;;13.70;59.40;;;;;;5092186;28;20193;-45
2023/01/22 09:55:41;;;;;;;3.50;3.17;;;13.70;59.40;;;;;;5086412;28;20204;-45
2023/01/22 09:58:19;;;;;;;3.73;3.10;;;13.70;60.00;;;;;;5089831;28;20212;-46
2023/01/22 10:01:13;;;;;;;4.67;3.00;;;13.70;59.40;;;;;;5110032;28;20184;-45
2023/01/22 10:03:58;;;;;;;2.80;2.60;;;13.70;59.40;;;;;;5107294;27;20240;-45
2023/01/22 10:06:29;;;;;;;2.53;2.33;;;13.70;59.40;;;;;;5102828;28;20223;-45
2023/01/22 10:09:19;;;;;;;3.77;2.70;;;13.70;59.50;;;;;;5110151;28;20196;-45
2023/01/22 10:11:53;;;;;;;4.60;3.07;;;13.70;59.50;;;;;;5093844;28;20192;-45
2023/01/22 10:14:25;;;;;;;3.20;2.50;;;13.70;59.40;;;;;;5108339;27;20192;-45
2023/01/22 10:17:00;;;;;;;3.80;3.50;;;13.70;59.50;;;;;;5073380;28;20200;-45
2023/01/22 10:19:51;;;;;;;2.73;2.53;;;13.70;59.40;;;;;;5084015;28;20249;-45
2023/01/22 10:22:24;;;;;;;3.17;2.50;;;13.70;59.40;;;;;;5106920;28;20232;-45
2023/01/22 10:24:53;;;;;;;3.40;2.57;;;13.70;59.40;;;;;;5089722;28;20348;-45
2023/01/22 10:27:38;;;;;;;2.10;2.00;;;13.70;59.40;;;;;;5088255;28;20779;-45
2023/01/22 10:30:21;;;;;;;3.63;2.80;;;13.70;59.40;;;;;;5086487;28;20196;-45
2023/01/22 10:33:14;;;;;;;2.13;1.97;;;13.70;59.40;;;;;;5110212;27;20673;-45
2023/01/22 10:35:47;;;;;;;2.70;2.50;;;13.70;59.40;;;;;;5106533;28;20193;-45
2023/01/22 10:38:34;;;;;;;2.40;2.20;;;13.70;59.40;;;;;;5103778;28;20216;-45
2023/01/22 10:41:04;;;;;;;2.60;2.30;;;13.70;59.40;;;;;;5105538;28;20685;-45
2023/01/22 10:43:54;;;;;;;2.07;1.73;;;13.70;59.40;;;;;;5106350;28;20200;-45
2023/01/22 10:46:25;;;;;;;2.63;2.40;;;13.70;59.50;;;;;;5106115;27;20192;-45
2023/01/22 10:49:05;;;;;;;3.07;2.30;;;13.70;59.40;;;;;;5105144;28;20212;-45
2023/01/22 10:51:41;;;;;;;4.17;2.23;;;13.70;59.40;;;;;;5108404;28;20196;-46
2023/01/22 10:54:30;;;;;;;2.67;2.47;;;13.70;59.40;;;;;;5086201;28;20189;-45
2023/01/22 10:57:26;;;;;;;2.00;1.90;;;13.70;59.40;;;;;;5107682;28;20212;-45
2023/01/22 11:00:18;;;;;;;2.53;1.70;;;13.70;59.40;;;;;;5105911;28;20196;-45
2023/01/22 11:02:49;;;;;;;2.53;2.00;;;13.70;59.40;;;;;;5107657;28;20214;-45
2023/01/22 11:05:33;;;;;;;2.13;1.80;;;13.70;59.40;;;;;;5105686;28;20194;-45
2023/01/22 11:08:05;;;;;;;2.20;2.00;;;13.70;59.40;;;;;;5083739;28;20660;-45
2023/01/22 11:10:55;;;;;;;2.10;1.87;;;13.70;59.40;;;;;;5092949;28;20224;-45
2023/01/22 11:14:06;;;;;;;1.60;1.50;;;13.70;59.40;;;;;;5105725;28;20193;-45
2023/01/22 11:16:39;;;;;;;1.93;1.83;;;13.70;59.40;;;;;;5060320;28;20259;-45
2023/01/22 11:19:15;;;;;;;2.23;1.67;;;13.70;59.40;;;;;;5088153;28;20263;-45
2023/01/22 11:22:20;;;;;;;3.43;2.20;;;13.70;59.40;;;;;;5083576;28;20293;-45
2023/01/22 11:24:50;;;;;;;3.13;2.33;;;13.70;59.40;;;;;;5082780;28;20200;-45
2023/01/22 11:27:39;;;;;;;5.73;1.80;;;13.70;59.40;;;;;;5082804;28;20194;-45
2023/01/22 11:30:44;;;;;;;2.23;1.93;;;13.70;59.40;;;;;;5080874;28;20197;-45
2023/01/22 11:33:31;;;;;;;2.87;2.23;;;13.70;59.40;;;;;;5077806;28;20252;-45
2023/01/22 11:36:41;;;;;;;2.77;1.97;;;13.70;59.40;;;;;;5089445;28;20204;-45
2023/01/22 11:39:56;;;;;;;2.63;2.20;;;13.70;59.40;;;;;;5078672;28;20539;-45
2023/01/22 11:42:44;;;;;;;2.30;1.90;;;13.70;59.30;;;;;;5082828;28;20210;-46
2023/01/22 11:45:46;;;;;;;2.83;2.30;;;13.70;59.30;;;;;;5080991;28;20630;-45
2023/01/22 11:48:27;;;;;;;2.20;2.00;;;13.70;59.30;;;;;;5076333;28;20192;-45
2023/01/22 11:51:16;;;;;;;2.93;2.00;;;13.70;59.20;;;;;;5073389;28;20660;-45
2023/01/22 11:54:10;;;;;;;4.47;1.73;;;13.70;59.90;;;;;;5080927;28;20216;-45
2023/01/22 11:57:27;;;;;;;4.47;2.10;;;13.70;60.60;;;;;;5086896;28;20821;-45
2023/01/22 12:00:23;;;;;;;3.07;2.20;;;13.80;61.10;;;;;;5085972;28;20204;-45
2023/01/22 12:03:22;;;;;;;5.43;2.00;;;13.80;61.10;;;;;;5076929;28;20231;-45
2023/01/22 12:06:11;;;;;;;2.20;2.00;;;13.90;60.80;;;;;;5092037;28;20232;-45
2023/01/22 12:09:20;;;;;;;3.17;2.30;;;14.00;60.70;;;;;;5082904;28;20220;-46
2023/01/22 12:12:27;;;;;;;1.80;1.43;;;14.00;60.50;;;;;;5083930;28;20227;-45
2023/01/22 12:15:21;;;;;;;2.20;1.97;;;14.00;60.40;;;;;;5062870;28;20252;-45
2023/01/22 12:18:10;;;;;;;2.10;1.67;;;14.00;60.40;;;;;;5057567;28;20223;-45
2023/01/22 12:21:06;;;;;;;1.50;1.40;;;14.00;60.50;;;;;;5092543;27;20265;-45
2023/01/22 12:24:04;;;;;;;1.47;1.37;;;14.10;60.50;;;;;;5107458;28;20523;-45
2023/01/22 12:26:41;;;;;;;2.20;1.30;;;14.20;60.50;;;;;;5105414;28;20188;-45
2023/01/22 12:29:29;;;;;;;2.03;1.80;;;14.30;60.60;;;;;;5093700;28;20640;-46
2023/01/22 12:32:12;;;;;;;2.53;1.70;;;14.40;60.80;;;;;;5079329;28;20236;-45
2023/01/22 12:35:05;;;;;;;3.97;1.73;;;14.50;60.70;;;;;;5093947;28;20574;-46
2023/01/22 12:37:56;;;;;;;3.00;1.87;;;14.50;60.70;;;;;;5076261;28;20661;-45
2023/01/22 12:40:54;;;;;;;2.90;1.50;;;14.60;60.30;;;;;;5113654;27;20204;-45
2023/01/22 12:43:51;;;;;;;3.83;1.90;;;14.60;60.40;;;;;;5100708;28;20215;-45
2023/01/22 12:46:51;;;;;;;6.43;2.20;;;14.70;61.10;;;;;;5107104;28;20200;-45
2023/01/22 12:49:22;;;;;;;2.53;1.50;;;14.80;60.30;;;;;;5110785;28;20815;-45
2023/01/22 12:51:54;;;;;;;4.67;2.13;;;14.80;60.50;;;;;;5095054;28;20193;-45
2023/01/22 12:54:34;;;;;;;5.67;1.87;;;14.80;60.70;;;;;;5117031;27;20281;-45
2023/01/22 12:57:21;;;;;;;8.00;2.70;;;14.90;60.60;;;;;;5088473;28;20192;-45
2023/01/22 12:59:55;;;;;;;6.07;2.07;;;15.00;60.80;;;;;;5107834;28;20196;-45
2023/01/22 13:02:35;;;;;;;5.97;2.27;;;15.00;60.60;;;;;;5077168;28;20204;-45
2023/01/22 13:05:29;;;;;;;7.90;2.43;;;15.00;60.90;;;;;;5072729;28;20193;-45
2023/01/22 13:08:33;;;;;;;6.00;2.50;;;15.10;60.60;;;;;;5092125;28;20204;-45
2023/01/22 13:11:07;;;;;;;6.47;2.27;;;15.10;60.30;;;;;;5089538;28;20188;-45
2023/01/22 13:13:53;;;;;;;4.50;2.50;;;15.10;60.60;;;;;;5111835;28;20567;-45
2023/01/22 13:16:40;;;;;;;6.23;2.40;;;15.20;60.80;;;;;;5105192;28;20181;-45
2023/01/22 13:19:21;;;;;;;7.03;2.60;;;15.20;60.30;;;;;;5073719;28;20596;-45
2023/01/22 13:21:55;;;;;;;4.60;2.90;;;15.20;60.00;;;;;;5100105;27;20244;-45
2023/01/22 13:24:23;;;;;;;7.50;2.53;;;15.20;60.40;;;;;;5083105;28;20185;-45
2023/01/22 13:27:01;;;;;;;301.40;60.53;;;15.30;60.50;;;;;;5106278;28;20207;-45
2023/01/22 13:29:36;;;;;;;580.87;134.33;;;15.30;60.60;;;;;;5079830;28;20181;-45
2023/01/22 13:32:19;;;;;;;546.00;127.37;;;15.40;61.70;;;;;;5086480;28;20377;-45
2023/01/22 13:34:48;;;;;;;429.43;97.73;;;15.50;62.80;;;;;;5071066;28;20286;-45
2023/01/22 13:37:27;;;;;;;381.00;94.30;;;15.50;61.70;;;;;;5086933;28;20209;-45